Time;durP1;ratioP1;P1;durP2;ratioP2;P2;SDS_P1;SDS_P2;PMS_P1;PMS_P2;Temp;Humidity;BMP_temperature;BMP_pressure;BME280_temperature;BME280_humidity;BME280_pressure;Samples;Min_cycle;Max_cycle;Signal;HPM_P1;HPM_P2
2021/12/18 07:15:48;;;;;;;;;;;;;;;7.89;56.06;101348.44;5070896;28;19993;-59
2021/12/18 07:18:14;;;;;;;;;;;;;;;8.59;51.96;101350.34;5076212;28;19928;-60
2021/12/18 08:04:13;;;;;;;;;;;;;;;9.00;76.75;101314.91;5092376;28;19969;-60
2021/12/18 08:06:39;;;;;;;;;;;;;;;8.50;72.71;101316.84;5092618;28;20015;-60
2021/12/18 08:21:44;;;;;;;;;;;;;;;7.17;53.11;101356.50;5091004;28;19957;-69
2021/12/18 08:24:09;;;;;;;;;;;;;;;7.10;41.52;101383.69;5088622;28;20007;-60
2021/12/18 08:26:35;;;;;;;;;;;;;;;6.97;35.39;101407.31;5088516;28;20026;-60
2021/12/18 08:44:16;;;;;;;;;;;;;;;8.36;23.84;101427.88;5086356;28;19958;-60
2021/12/18 09:05:49;;;;;;;;;;;;;;;9.42;47.71;101359.09;5074988;28;19935;-60
2021/12/18 09:08:15;;;;;;;;;;;;;;;9.29;53.04;101341.81;5093556;28;19927;-60
2021/12/18 09:10:41;;;;;;;;;;;;;;;9.39;56.05;101343.63;5063749;28;20289;-60
2021/12/18 09:13:06;;;;;;;;;;;;;;;8.55;52.72;101338.31;5073170;28;19916;-60
2021/12/18 10:10:38;;;;;;;;;;;;;;;7.33;11.33;101404.66;5072391;28;19931;-60
2021/12/18 10:13:07;;;;;;;;;;;;;;;7.42;8.66;101409.09;5070097;28;19924;-60
2021/12/18 10:15:33;;;;;;;;;;;;;;;7.61;8.01;101407.75;5073630;28;19927;-60
2021/12/18 10:18:06;;;;;;;;;;;;;;;7.19;8.09;101406.94;5073801;28;19913;-60
2021/12/18 10:20:31;;;;;;;;;;;;;;;7.35;5.16;101409.81;5069822;28;19917;-58
2021/12/18 10:23:03;;;;;;;;;;;;;;;7.31;3.50;101417.44;5045728;28;20294;-58
2021/12/18 10:25:30;;;;;;;;;;;;;;;7.50;1.63;101421.25;5047467;28;19916;-59
2021/12/18 10:28:18;;;;;;;;;;;;;;;7.74;0.46;101417.41;5045730;28;19925;-60
2021/12/18 10:30:44;;;;;;;;;;;;;;;7.89;0.00;101420.25;5045074;28;19920;-59
2021/12/18 10:33:11;;;;;;;;;;;;;;;7.65;1.32;101404.41;5044627;28;20322;-60
2021/12/18 10:35:40;;;;;;;;;;;;;;;7.48;0.93;101404.97;5052761;28;19964;-59
2021/12/18 10:38:05;;;;;;;;;;;;;;;7.53;0.00;101416.16;5055514;28;19942;-60
2021/12/18 10:40:44;;;;;;;;;;;;;;;7.63;0.00;101409.50;5032865;28;19921;-60
2021/12/18 10:43:10;;;;;;;;;;;;;;;7.68;0.00;101404.47;5038709;28;21084;-57
2021/12/18 10:45:35;;;;;;;;;;;;;;;7.64;0.00;101408.69;5037655;28;19917;-60
2021/12/18 10:48:03;;;;;;;;;;;;;;;7.44;0.00;101399.75;5053513;28;20609;-60
2021/12/18 10:50:34;;;;;;;;;;;;;;;7.24;0.00;101392.53;5055810;28;20347;-59
2021/12/18 10:53:00;;;;;;;;;;;;;;;7.51;0.00;101392.19;5057673;28;19939;-59
2021/12/18 10:55:26;;;;;;;;;;;;;;;7.30;0.00;101389.22;5048299;28;19921;-60
2021/12/18 10:57:52;;;;;;;;;;;;;;;7.30;0.00;101387.53;5053741;28;19916;-60
2021/12/18 11:00:20;;;;;;;;;;;;;;;7.13;0.00;101394.00;5053035;28;19921;-60
2021/12/18 11:02:45;;;;;;;;;;;;;;;7.51;0.00;101402.44;5048238;28;19920;-59
2021/12/18 11:05:17;;;;;;;;;;;;;;;7.38;0.00;101397.06;5046266;28;19925;-58
2021/12/18 11:07:44;;;;;;;;;;;;;;;7.46;0.00;101396.38;5045705;28;19916;-59
2021/12/18 11:10:40;;;;;;;;;;;;;;;7.38;0.00;101399.63;5047720;28;20026;-59
2021/12/18 12:14:09;;;;;;;;;;;;;;;6.64;0.00;101439.91;5085877;28;19931;-60
2021/12/18 12:16:43;;;;;;;;;;;;;;;6.73;0.00;101441.81;5056022;28;19928;-60
2021/12/18 12:19:10;;;;;;;;;;;;;;;6.72;0.00;101442.63;5073140;28;19940;-60
2021/12/18 12:21:39;;;;;;;;;;;;;;;6.72;0.00;101447.75;5069997;28;19913;-60
2021/12/18 12:24:05;;;;;;;;;;;;;;;6.57;0.00;101434.59;5079538;28;20001;-60
2021/12/18 12:26:30;;;;;;;;;;;;;;;6.59;0.00;101435.50;5074940;28;19974;-60
2021/12/18 12:28:55;;;;;;;;;;;;;;;6.76;0.00;101433.34;5071293;28;19924;-59
2021/12/18 12:31:21;;;;;;;;;;;;;;;6.94;0.00;101444.00;5066212;28;19919;-60
2021/12/18 12:33:49;;;;;;;;;;;;;;;6.92;0.00;101440.53;5072554;28;19920;-59
2021/12/18 14:05:31;;;;;;;;;;;;;;;6.24;0.00;101403.09;5093520;28;19939;-62
2021/12/18 14:07:56;;;;;;;;;;;;;;;6.09;0.00;101402.75;5093934;28;20615;-62
2021/12/18 14:44:00;;;;;;;;;;;;;;;5.84;0.00;101317.72;5094581;28;19923;-62
2021/12/18 15:20:56;;;;;;;;;;;;;;;5.70;0.00;101279.81;5098095;28;19927;-63
2021/12/18 15:23:23;;;;;;;;;;;;;;;5.81;0.00;101279.25;5098219;28;19916;-61
2021/12/18 15:25:48;;;;;;;;;;;;;;;5.87;0.00;101284.53;5096593;28;19920;-63
2021/12/18 15:28:22;;;;;;;;;;;;;;;5.70;0.00;101284.94;5093155;28;20427;-63
2021/12/18 15:33:52;;;;;;;;;;;;;;;5.66;0.00;101263.56;5093322;28;20343;-63
2021/12/18 15:36:19;;;;;;;;;;;;;;;5.74;0.00;101276.53;5064612;28;20018;-63
2021/12/18 15:57:04;;;;;;;;;;;;;;;5.42;0.00;101257.00;5077971;28;19993;-61
2021/12/18 16:05:36;;;;;;;;;;;;;;;5.23;0.00;101272.69;5095967;28;19934;-59
2021/12/18 16:08:27;;;;;;;;;;;;;;;5.34;0.00;101275.53;5076186;28;19921;-59
2021/12/18 16:11:04;;;;;;;;;;;;;;;5.30;0.00;101282.25;5082829;28;19966;-59
2021/12/18 16:13:29;;;;;;;;;;;;;;;5.57;0.00;101291.47;5094694;28;20355;-59
2021/12/18 16:15:55;;;;;;;;;;;;;;;5.43;0.00;101291.97;5093435;28;20027;-58
2021/12/18 17:04:24;;;;;;;;;;;;;;;5.67;0.00;101234.59;5089029;28;19927;-59
2021/12/18 17:06:49;;;;;;;;;;;;;;;5.53;0.00;101233.41;5070742;28;19927;-59
2021/12/18 17:09:15;;;;;;;;;;;;;;;5.68;0.00;101233.78;5075590;28;19999;-59
2021/12/18 17:11:41;;;;;;;;;;;;;;;5.60;0.00;101232.75;5074750;28;19969;-61
2021/12/18 17:14:06;;;;;;;;;;;;;;;5.64;0.00;101221.75;5074255;28;19965;-59
2021/12/18 17:28:43;;;;;;;;;;;;;;;5.79;0.00;101214.47;5072850;28;20368;-62
